sensor_id;sensor_type;location;lat;lon;timestamp;pressure;altitude;pressure_sealevel;temperature;humidity
49973;BME280;65693;49.798;10.968;2023-06-04T00:02:03;98353.94;;;18.71;34.92
49973;BME280;65693;49.798;10.968;2023-06-04T00:04:29;98348.72;;;18.70;35.02
49973;BME280;65693;49.798;10.968;2023-06-04T00:06:56;98344.22;;;18.70;35.12
49973;BME280;65693;49.798;10.968;2023-06-04T00:09:22;98345.59;;;18.74;34.93
49973;BME280;65693;49.798;10.968;2023-06-04T00:11:50;98339.97;;;18.68;35.32
49973;BME280;65693;49.798;10.968;2023-06-04T00:14:17;98348.19;;;18.66;34.88
49973;BME280;65693;49.798;10.968;2023-06-04T00:16:43;98345.63;;;18.65;35.11
49973;BME280;65693;49.798;10.968;2023-06-04T00:19:10;98343.94;;;18.64;35.05
49973;BME280;65693;49.798;10.968;2023-06-04T00:21:36;98343.94;;;18.64;35.26
49973;BME280;65693;49.798;10.968;2023-06-04T00:24:03;98340.97;;;18.67;34.96
49973;BME280;65693;49.798;10.968;2023-06-04T00:26:29;98341.41;;;18.62;35.10
49973;BME280;65693;49.798;10.968;2023-06-04T00:28:57;98340.56;;;18.61;35.38
49973;BME280;65693;49.798;10.968;2023-06-04T00:31:24;98342.38;;;18.61;35.13
49973;BME280;65693;49.798;10.968;2023-06-04T00:33:51;98343.38;;;18.60;35.13
49973;BME280;65693;49.798;10.968;2023-06-04T00:36:17;98345.38;;;18.58;35.06
49973;BME280;65693;49.798;10.968;2023-06-04T00:38:44;98341.84;;;18.57;35.14
49973;BME280;65693;49.798;10.968;2023-06-04T00:41:10;98339.00;;;18.59;35.15
49973;BME280;65693;49.798;10.968;2023-06-04T00:43:37;98336.19;;;18.60;34.99
49973;BME280;65693;49.798;10.968;2023-06-04T00:46:05;98340.25;;;18.65;34.88
49973;BME280;65693;49.798;10.968;2023-06-04T00:48:32;98339.72;;;18.61;34.98
49973;BME280;65693;49.798;10.968;2023-06-04T00:51:00;98340.56;;;18.61;34.96
49973;BME280;65693;49.798;10.968;2023-06-04T00:53:26;98338.47;;;18.55;35.16
49973;BME280;65693;49.798;10.968;2023-06-04T00:55:52;98341.56;;;18.60;35.07
49973;BME280;65693;49.798;10.968;2023-06-04T00:58:19;98334.34;;;18.61;34.99
49973;BME280;65693;49.798;10.968;2023-06-04T01:00:46;98334.63;;;18.58;35.11
49973;BME280;65693;49.798;10.968;2023-06-04T01:03:17;98340.59;;;18.52;35.15
49973;BME280;65693;49.798;10.968;2023-06-04T01:05:51;98333.84;;;18.47;35.24
49973;BME280;65693;49.798;10.968;2023-06-04T01:08:20;98339.75;;;18.51;35.21
49973;BME280;65693;49.798;10.968;2023-06-04T01:10:50;98332.69;;;18.50;35.24
49973;BME280;65693;49.798;10.968;2023-06-04T01:13:17;98341.44;;;18.52;34.96
49973;BME280;65693;49.798;10.968;2023-06-04T01:15:43;98334.53;;;18.50;35.12
49973;BME280;65693;49.798;10.968;2023-06-04T01:18:11;98342.41;;;18.51;34.99
49973;BME280;65693;49.798;10.968;2023-06-04T01:20:56;98352.59;;;18.57;34.95
49973;BME280;65693;49.798;10.968;2023-06-04T01:23:33;98340.72;;;18.50;34.90
49973;BME280;65693;49.798;10.968;2023-06-04T01:26:04;98339.22;;;18.47;34.98
49973;BME280;65693;49.798;10.968;2023-06-04T01:28:32;98341.88;;;18.47;34.90
49973;BME280;65693;49.798;10.968;2023-06-04T01:31:00;98341.03;;;18.47;35.04
49973;BME280;65693;49.798;10.968;2023-06-04T01:33:27;98341.47;;;18.42;35.25
49973;BME280;65693;49.798;10.968;2023-06-04T01:35:55;98337.50;;;18.46;34.98
49973;BME280;65693;49.798;10.968;2023-06-04T01:38:22;98340.91;;;18.48;34.95
49973;BME280;65693;49.798;10.968;2023-06-04T01:40:48;98340.63;;;18.42;35.17
49973;BME280;65693;49.798;10.968;2023-06-04T01:43:16;98343.44;;;18.40;35.07
49973;BME280;65693;49.798;10.968;2023-06-04T01:45:42;98343.16;;;18.43;35.06
49973;BME280;65693;49.798;10.968;2023-06-04T01:48:09;98350.66;;;18.40;35.07
49973;BME280;65693;49.798;10.968;2023-06-04T01:50:35;98345.84;;;18.43;34.99
49973;BME280;65693;49.798;10.968;2023-06-04T01:53:03;98347.13;;;18.39;35.05
49973;BME280;65693;49.798;10.968;2023-06-04T01:55:29;98348.81;;;18.40;35.00
49973;BME280;65693;49.798;10.968;2023-06-04T01:57:58;98344.88;;;18.34;35.33
49973;BME280;65693;49.798;10.968;2023-06-04T02:00:25;98349.09;;;18.37;34.92
49973;BME280;65693;49.798;10.968;2023-06-04T02:02:51;98354.78;;;18.34;34.89
49973;BME280;65693;49.798;10.968;2023-06-04T02:05:18;98352.91;;;18.34;35.04
49973;BME280;65693;49.798;10.968;2023-06-04T02:07:45;98355.34;;;18.38;34.98
49973;BME280;65693;49.798;10.968;2023-06-04T02:10:15;98356.59;;;18.33;34.95
49973;BME280;65693;49.798;10.968;2023-06-04T02:12:53;98350.09;;;18.36;34.89
49973;BME280;65693;49.798;10.968;2023-06-04T02:15:20;98357.28;;;18.26;35.24
49973;BME280;65693;49.798;10.968;2023-06-04T02:17:47;98356.03;;;18.30;35.07
49973;BME280;65693;49.798;10.968;2023-06-04T02:20:15;98355.28;;;18.28;35.02
49973;BME280;65693;49.798;10.968;2023-06-04T02:22:42;98355.84;;;18.31;35.10
49973;BME280;65693;49.798;10.968;2023-06-04T02:25:09;98352.78;;;18.26;35.07
49973;BME280;65693;49.798;10.968;2023-06-04T02:27:36;98358.84;;;18.28;35.06
49973;BME280;65693;49.798;10.968;2023-06-04T02:30:04;98352.59;;;18.28;34.98
49973;BME280;65693;49.798;10.968;2023-06-04T02:32:31;98352.91;;;18.25;34.98
49973;BME280;65693;49.798;10.968;2023-06-04T02:34:58;98359.25;;;18.24;35.16
49973;BME280;65693;49.798;10.968;2023-06-04T02:37:25;98363.63;;;18.25;35.14
49973;BME280;65693;49.798;10.968;2023-06-04T02:39:51;98365.78;;;18.21;35.18
49973;BME280;65693;49.798;10.968;2023-06-04T02:42:18;98363.22;;;18.19;35.10
49973;BME280;65693;49.798;10.968;2023-06-04T02:44:46;98368.72;;;18.18;35.20
49973;BME280;65693;49.798;10.968;2023-06-04T02:47:12;98361.53;;;18.18;35.09
49973;BME280;65693;49.798;10.968;2023-06-04T02:49:38;98358.84;;;18.18;35.14
49973;BME280;65693;49.798;10.968;2023-06-04T02:52:06;98361.81;;;18.15;35.27
49973;BME280;65693;49.798;10.968;2023-06-04T02:54:32;98363.34;;;18.18;35.12
49973;BME280;65693;49.798;10.968;2023-06-04T02:56:59;98366.31;;;18.15;35.15
49973;BME280;65693;49.798;10.968;2023-06-04T02:59:25;98362.81;;;18.14;35.13
49973;BME280;65693;49.798;10.968;2023-06-04T03:01:53;98365.50;;;18.14;35.13
49973;BME280;65693;49.798;10.968;2023-06-04T03:04:20;98372.69;;;18.14;35.25
49973;BME280;65693;49.798;10.968;2023-06-04T03:06:46;98371.00;;;18.13;35.08
49973;BME280;65693;49.798;10.968;2023-06-04T03:09:13;98367.63;;;18.11;35.26
49973;BME280;65693;49.798;10.968;2023-06-04T03:11:39;98368.72;;;18.08;35.24
49973;BME280;65693;49.798;10.968;2023-06-04T03:14:06;98365.22;;;18.08;35.22
49973;BME280;65693;49.798;10.968;2023-06-04T03:16:32;98374.25;;;18.07;35.29
49973;BME280;65693;49.798;10.968;2023-06-04T03:19:00;98378.47;;;18.09;35.16
49973;BME280;65693;49.798;10.968;2023-06-04T03:21:26;98380.75;;;18.04;35.26
49973;BME280;65693;49.798;10.968;2023-06-04T03:23:54;98375.25;;;18.05;35.29
49973;BME280;65693;49.798;10.968;2023-06-04T03:26:20;98378.06;;;18.04;35.19
49973;BME280;65693;49.798;10.968;2023-06-04T03:28:46;98375.50;;;18.02;35.38
49973;BME280;65693;49.798;10.968;2023-06-04T03:31:13;98376.38;;;18.03;35.19
49973;BME280;65693;49.798;10.968;2023-06-04T03:33:40;98386.38;;;18.01;35.31
49973;BME280;65693;49.798;10.968;2023-06-04T03:36:07;98378.47;;;17.99;35.33
49973;BME280;65693;49.798;10.968;2023-06-04T03:38:34;98383.72;;;18.01;35.20
49973;BME280;65693;49.798;10.968;2023-06-04T03:41:00;98383.72;;;18.01;35.22
49973;BME280;65693;49.798;10.968;2023-06-04T03:43:27;98382.16;;;17.98;35.27
49973;BME280;65693;49.798;10.968;2023-06-04T03:45:53;98380.31;;;17.99;35.25
49973;BME280;65693;49.798;10.968;2023-06-04T03:48:20;98376.09;;;17.96;35.31
49973;BME280;65693;49.798;10.968;2023-06-04T03:50:46;98377.78;;;17.97;35.28
49973;BME280;65693;49.798;10.968;2023-06-04T03:53:15;98387.94;;;17.94;35.37
49973;BME280;65693;49.798;10.968;2023-06-04T03:55:42;98385.81;;;17.97;35.32
49973;BME280;65693;49.798;10.968;2023-06-04T03:58:08;98378.63;;;17.98;35.33
49973;BME280;65693;49.798;10.968;2023-06-04T04:00:36;98382.16;;;17.98;35.35
49973;BME280;65693;49.798;10.968;2023-06-04T04:03:03;98378.75;;;17.96;35.34
49973;BME280;65693;49.798;10.968;2023-06-04T04:05:34;98384.25;;;17.95;35.45
49973;BME280;65693;49.798;10.968;2023-06-04T04:08:02;98377.19;;;17.94;35.42
49973;BME280;65693;49.798;10.968;2023-06-04T04:10:30;98381.03;;;18.01;35.26
49973;BME280;65693;49.798;10.968;2023-06-04T04:12:56;98384.69;;;18.00;35.28
49973;BME280;65693;49.798;10.968;2023-06-04T04:15:23;98382.16;;;17.98;35.38
49973;BME280;65693;49.798;10.968;2023-06-04T04:17:49;98390.59;;;17.94;35.38
49973;BME280;65693;49.798;10.968;2023-06-04T04:20:16;98388.38;;;17.99;35.28
49973;BME280;65693;49.798;10.968;2023-06-04T04:22:43;98395.97;;;17.94;35.48
49973;BME280;65693;49.798;10.968;2023-06-04T04:25:09;98393.16;;;17.85;35.56
49973;BME280;65693;49.798;10.968;2023-06-04T04:27:37;98391.75;;;17.81;35.77
49973;BME280;65693;49.798;10.968;2023-06-04T04:30:07;98395.25;;;17.82;35.81
49973;BME280;65693;49.798;10.968;2023-06-04T04:32:33;98392.88;;;17.79;35.79
49973;BME280;65693;49.798;10.968;2023-06-04T04:35:04;98393.69;;;17.79;35.72
49973;BME280;65693;49.798;10.968;2023-06-04T04:37:30;98404.41;;;17.79;35.90
49973;BME280;65693;49.798;10.968;2023-06-04T04:39:57;98398.22;;;17.79;35.84
49973;BME280;65693;49.798;10.968;2023-06-04T04:42:23;98397.38;;;17.78;35.91
49973;BME280;65693;49.798;10.968;2023-06-04T04:44:51;98395.66;;;17.77;35.84
49973;BME280;65693;49.798;10.968;2023-06-04T04:47:17;98393.00;;;17.77;35.84
49973;BME280;65693;49.798;10.968;2023-06-04T04:49:44;98400.03;;;17.78;35.90
49973;BME280;65693;49.798;10.968;2023-06-04T04:52:10;98395.66;;;17.77;35.82
49973;BME280;65693;49.798;10.968;2023-06-04T04:54:37;98398.34;;;17.77;35.84
49973;BME280;65693;49.798;10.968;2023-06-04T04:57:04;98400.03;;;17.78;35.98
49973;BME280;65693;49.798;10.968;2023-06-04T04:59:32;98398.34;;;17.77;36.07
49973;BME280;65693;49.798;10.968;2023-06-04T05:02:00;98397.13;;;17.81;35.84
49973;BME280;65693;49.798;10.968;2023-06-04T05:04:27;98397.81;;;17.83;35.71
49973;BME280;65693;49.798;10.968;2023-06-04T05:06:53;98405.16;;;17.81;35.79
49973;BME280;65693;49.798;10.968;2023-06-04T05:09:20;98411.50;;;17.80;35.95
49973;BME280;65693;49.798;10.968;2023-06-04T05:11:46;98413.91;;;17.83;35.83
49973;BME280;65693;49.798;10.968;2023-06-04T05:14:13;98411.63;;;17.79;36.17
49973;BME280;65693;49.798;10.968;2023-06-04T05:16:39;98413.19;;;17.81;35.84
49973;BME280;65693;49.798;10.968;2023-06-04T05:19:07;98418.41;;;17.83;35.85
49973;BME280;65693;49.798;10.968;2023-06-04T05:21:36;98419.25;;;17.83;35.89
49973;BME280;65693;49.798;10.968;2023-06-04T05:24:02;98421.94;;;17.83;35.86
49973;BME280;65693;49.798;10.968;2023-06-04T05:26:29;98420.25;;;17.82;35.80
49973;BME280;65693;49.798;10.968;2023-06-04T05:28:55;98423.75;;;17.83;35.89
49973;BME280;65693;49.798;10.968;2023-06-04T05:31:23;98427.31;;;17.83;35.86
49973;BME280;65693;49.798;10.968;2023-06-04T05:33:51;98427.16;;;17.85;35.77
49973;BME280;65693;49.798;10.968;2023-06-04T05:36:19;98434.34;;;17.84;35.81
49973;BME280;65693;49.798;10.968;2023-06-04T05:38:46;98425.44;;;17.84;35.67
49973;BME280;65693;49.798;10.968;2023-06-04T05:41:12;98426.59;;;17.81;35.83
49973;BME280;65693;49.798;10.968;2023-06-04T05:43:39;98429.81;;;17.85;35.69
49973;BME280;65693;49.798;10.968;2023-06-04T05:46:05;98428.13;;;17.84;35.68
49973;BME280;65693;49.798;10.968;2023-06-04T05:48:32;98436.34;;;17.82;35.80
49973;BME280;65693;49.798;10.968;2023-06-04T05:50:59;98442.53;;;17.83;35.81
49973;BME280;65693;49.798;10.968;2023-06-04T05:53:26;98438.03;;;17.83;35.83
49973;BME280;65693;49.798;10.968;2023-06-04T05:55:53;98440.84;;;17.82;35.79
49973;BME280;65693;49.798;10.968;2023-06-04T05:58:19;98435.34;;;17.83;35.71
49973;BME280;65693;49.798;10.968;2023-06-04T06:00:46;98437.03;;;17.84;35.73
49973;BME280;65693;49.798;10.968;2023-06-04T06:03:13;98437.03;;;17.84;35.74
49973;BME280;65693;49.798;10.968;2023-06-04T06:05:41;98434.19;;;17.86;36.13
49973;BME280;65693;49.798;10.968;2023-06-04T06:08:08;98436.53;;;17.49;35.71
49973;BME280;65693;49.798;10.968;2023-06-04T06:10:36;98438.91;;;17.43;36.22
49973;BME280;65693;49.798;10.968;2023-06-04T06:13:02;98437.09;;;17.43;36.26
49973;BME280;65693;49.798;10.968;2023-06-04T06:15:29;98438.50;;;17.47;36.94
49973;BME280;65693;49.798;10.968;2023-06-04T06:17:55;98441.75;;;17.51;36.83
49973;BME280;65693;49.798;10.968;2023-06-04T06:20:22;98452.19;;;17.54;36.69
49973;BME280;65693;49.798;10.968;2023-06-04T06:22:49;98443.88;;;17.57;36.55
49973;BME280;65693;49.798;10.968;2023-06-04T06:25:15;98440.22;;;17.58;36.36
49973;BME280;65693;49.798;10.968;2023-06-04T06:27:43;98443.59;;;17.60;36.27
49973;BME280;65693;49.798;10.968;2023-06-04T06:30:10;98455.03;;;17.62;36.19
49973;BME280;65693;49.798;10.968;2023-06-04T06:32:37;98454.06;;;17.63;36.47
49973;BME280;65693;49.798;10.968;2023-06-04T06:35:04;98453.09;;;17.65;36.45
49973;BME280;65693;49.798;10.968;2023-06-04T06:37:30;98456.59;;;17.65;36.57
49973;BME280;65693;49.798;10.968;2023-06-04T06:39:57;98460.97;;;17.66;36.69
49973;BME280;65693;49.798;10.968;2023-06-04T06:42:23;98464.78;;;17.63;36.84
49973;BME280;65693;49.798;10.968;2023-06-04T06:44:51;98467.19;;;17.67;36.84
49973;BME280;65693;49.798;10.968;2023-06-04T06:47:17;98468.88;;;17.68;37.05
49973;BME280;65693;49.798;10.968;2023-06-04T06:49:44;98469.88;;;17.67;36.85
49973;BME280;65693;49.798;10.968;2023-06-04T06:52:10;98467.19;;;17.67;36.62
49973;BME280;65693;49.798;10.968;2023-06-04T06:54:36;98461.13;;;17.65;36.95
49973;BME280;65693;49.798;10.968;2023-06-04T06:57:03;98459.00;;;17.68;36.76
49973;BME280;65693;49.798;10.968;2023-06-04T06:59:34;98458.75;;;17.71;36.67
49973;BME280;65693;49.798;10.968;2023-06-04T07:02:02;98466.91;;;17.70;36.79
49973;BME280;65693;49.798;10.968;2023-06-04T07:04:28;98463.97;;;17.73;36.71
49973;BME280;65693;49.798;10.968;2023-06-04T07:06:55;98464.94;;;17.72;36.68
49973;BME280;65693;49.798;10.968;2023-06-04T07:09:21;98462.13;;;17.73;36.68
49973;BME280;65693;49.798;10.968;2023-06-04T07:11:48;98466.50;;;17.74;36.79
49973;BME280;65693;49.798;10.968;2023-06-04T07:14:14;98462.97;;;17.74;36.64
49973;BME280;65693;49.798;10.968;2023-06-04T07:16:41;98469.19;;;17.74;36.84
49973;BME280;65693;49.798;10.968;2023-06-04T07:19:08;98466.34;;;17.76;36.97
49973;BME280;65693;49.798;10.968;2023-06-04T07:21:35;98465.53;;;17.75;37.03
49973;BME280;65693;49.798;10.968;2023-06-04T07:24:01;98463.38;;;17.79;37.34
49973;BME280;65693;49.798;10.968;2023-06-04T07:26:28;98456.91;;;17.82;37.33
49973;BME280;65693;49.798;10.968;2023-06-04T07:28:56;98463.13;;;17.82;37.14
49973;BME280;65693;49.798;10.968;2023-06-04T07:31:22;98465.13;;;17.80;37.08
49973;BME280;65693;49.798;10.968;2023-06-04T07:33:49;98466.94;;;17.80;37.19
49973;BME280;65693;49.798;10.968;2023-06-04T07:36:16;98458.91;;;17.80;37.14
49973;BME280;65693;49.798;10.968;2023-06-04T07:38:43;98461.44;;;17.81;36.85
49973;BME280;65693;49.798;10.968;2023-06-04T07:41:09;98462.28;;;17.82;36.87
49973;BME280;65693;49.798;10.968;2023-06-04T07:43:36;98455.22;;;17.81;37.08
49973;BME280;65693;49.798;10.968;2023-06-04T07:46:03;98457.06;;;17.80;36.92
49973;BME280;65693;49.798;10.968;2023-06-04T07:48:30;98451.56;;;17.82;36.85
49973;BME280;65693;49.798;10.968;2023-06-04T07:50:57;98450.72;;;17.81;36.94
49973;BME280;65693;49.798;10.968;2023-06-04T07:53:25;98461.44;;;17.81;37.01
49973;BME280;65693;49.798;10.968;2023-06-04T07:55:52;98457.78;;;17.82;37.04
49973;BME280;65693;49.798;10.968;2023-06-04T07:58:18;98447.06;;;17.82;36.86
49973;BME280;65693;49.798;10.968;2023-06-04T08:00:45;98454.22;;;17.82;36.94
49973;BME280;65693;49.798;10.968;2023-06-04T08:03:11;98457.63;;;17.84;36.84
49973;BME280;65693;49.798;10.968;2023-06-04T08:05:38;98451.28;;;17.85;36.85
49973;BME280;65693;49.798;10.968;2023-06-04T08:08:04;98449.75;;;17.82;36.93
49973;BME280;65693;49.798;10.968;2023-06-04T08:10:32;98450.44;;;17.84;36.86
49973;BME280;65693;49.798;10.968;2023-06-04T08:12:59;98451.44;;;17.83;36.85
49973;BME280;65693;49.798;10.968;2023-06-04T08:15:25;98449.56;;;17.84;36.93
49973;BME280;65693;49.798;10.968;2023-06-04T08:17:51;98449.56;;;17.84;36.89
49973;BME280;65693;49.798;10.968;2023-06-04T08:20:18;98444.22;;;17.84;36.86
49973;BME280;65693;49.798;10.968;2023-06-04T08:22:44;98445.09;;;17.84;36.76
49973;BME280;65693;49.798;10.968;2023-06-04T08:25:11;98451.28;;;17.85;36.71
49973;BME280;65693;49.798;10.968;2023-06-04T08:27:40;98445.09;;;17.84;36.85
49973;BME280;65693;49.798;10.968;2023-06-04T08:30:08;98447.19;;;17.90;36.83
49973;BME280;65693;49.798;10.968;2023-06-04T08:32:35;98450.88;;;17.89;36.74
49973;BME280;65693;49.798;10.968;2023-06-04T08:35:01;98449.16;;;17.88;36.70
49973;BME280;65693;49.798;10.968;2023-06-04T08:37:28;98450.03;;;17.89;36.77
49973;BME280;65693;49.798;10.968;2023-06-04T08:39:55;98448.19;;;17.89;36.63
49973;BME280;65693;49.798;10.968;2023-06-04T08:42:22;98444.50;;;17.90;36.68
49973;BME280;65693;49.798;10.968;2023-06-04T08:44:56;98451.72;;;17.90;36.65
49973;BME280;65693;49.798;10.968;2023-06-04T08:47:24;98455.94;;;17.92;36.68
49973;BME280;65693;49.798;10.968;2023-06-04T08:49:52;98450.44;;;17.94;36.54
49973;BME280;65693;49.798;10.968;2023-06-04T08:52:18;98455.66;;;17.96;36.55
49973;BME280;65693;49.798;10.968;2023-06-04T08:54:48;98457.63;;;17.94;36.63
49973;BME280;65693;49.798;10.968;2023-06-04T08:57:15;98452.16;;;17.95;36.71
49973;BME280;65693;49.798;10.968;2023-06-04T08:59:43;98451.88;;;17.98;36.49
49973;BME280;65693;49.798;10.968;2023-06-04T09:02:12;98454.16;;;18.32;35.74
49973;BME280;65693;49.798;10.968;2023-06-04T09:04:39;98445.66;;;18.27;35.02
49973;BME280;65693;49.798;10.968;2023-06-04T09:07:06;98458.66;;;18.22;35.02
49973;BME280;65693;49.798;10.968;2023-06-04T09:09:38;98462.59;;;18.18;35.19
49973;BME280;65693;49.798;10.968;2023-06-04T09:12:08;98453.00;;;18.15;35.46
49973;BME280;65693;49.798;10.968;2023-06-04T09:14:36;98459.22;;;18.16;35.62
49973;BME280;65693;49.798;10.968;2023-06-04T09:17:02;98464.84;;;18.13;35.62
49973;BME280;65693;49.798;10.968;2023-06-04T09:19:30;98458.63;;;18.12;35.75
49973;BME280;65693;49.798;10.968;2023-06-04T09:21:58;98452.56;;;18.10;35.77
49973;BME280;65693;49.798;10.968;2023-06-04T09:24:38;98458.91;;;18.09;35.92
49973;BME280;65693;49.798;10.968;2023-06-04T09:27:09;98459.53;;;18.32;35.47
49973;BME280;65693;49.798;10.968;2023-06-04T09:29:36;98463.75;;;18.55;35.38
49973;BME280;65693;49.798;10.968;2023-06-04T09:32:03;98458.78;;;18.80;35.18
49973;BME280;65693;49.798;10.968;2023-06-04T09:34:31;98469.78;;;18.76;35.18
49973;BME280;65693;49.798;10.968;2023-06-04T09:36:58;98456.69;;;18.64;35.29
49973;BME280;65693;49.798;10.968;2023-06-04T09:39:24;98450.34;;;18.55;35.49
49973;BME280;65693;49.798;10.968;2023-06-04T09:41:58;98447.53;;;18.46;35.60
49973;BME280;65693;49.798;10.968;2023-06-04T09:44:25;98452.47;;;18.41;35.62
49973;BME280;65693;49.798;10.968;2023-06-04T09:47:03;98450.19;;;18.56;35.55
49973;BME280;65693;49.798;10.968;2023-06-04T09:49:40;98451.28;;;18.73;34.65
49973;BME280;65693;49.798;10.968;2023-06-04T09:52:06;98446.47;;;18.87;35.25
49973;BME280;65693;49.798;10.968;2023-06-04T09:54:35;98436.53;;;18.97;34.62
49973;BME280;65693;49.798;10.968;2023-06-04T09:57:02;98442.19;;;19.04;34.08
49973;BME280;65693;49.798;10.968;2023-06-04T09:59:30;98438.47;;;19.15;34.32
49973;BME280;65693;49.798;10.968;2023-06-04T10:01:59;98440.25;;;19.24;33.76
49973;BME280;65693;49.798;10.968;2023-06-04T10:04:26;98442.22;;;19.22;32.94
49973;BME280;65693;49.798;10.968;2023-06-04T10:06:55;98434.88;;;19.24;33.17
49973;BME280;65693;49.798;10.968;2023-06-04T10:09:23;98440.09;;;19.36;32.81
49973;BME280;65693;49.798;10.968;2023-06-04T10:11:53;98443.59;;;19.46;32.37
49973;BME280;65693;49.798;10.968;2023-06-04T10:14:22;98444.56;;;19.45;32.17
49973;BME280;65693;49.798;10.968;2023-06-04T10:16:51;98442.97;;;19.52;32.35
49973;BME280;65693;49.798;10.968;2023-06-04T10:19:18;98439.16;;;19.55;32.25
49973;BME280;65693;49.798;10.968;2023-06-04T10:21:45;98444.47;;;19.65;32.21
49973;BME280;65693;49.798;10.968;2023-06-04T10:24:14;98436.25;;;19.66;32.25
49973;BME280;65693;49.798;10.968;2023-06-04T10:26:42;98439.09;;;19.65;33.18
49973;BME280;65693;49.798;10.968;2023-06-04T10:29:08;98444.41;;;19.74;32.35
49973;BME280;65693;49.798;10.968;2023-06-04T10:31:36;98440.41;;;19.79;33.28
49973;BME280;65693;49.798;10.968;2023-06-04T10:34:03;98444.00;;;19.69;32.98
49973;BME280;65693;49.798;10.968;2023-06-04T10:36:30;98439.09;;;19.83;32.42
49973;BME280;65693;49.798;10.968;2023-06-04T10:38:56;98449.09;;;19.90;32.20
49973;BME280;65693;49.798;10.968;2023-06-04T10:41:24;98440.88;;;20.10;32.71
49973;BME280;65693;49.798;10.968;2023-06-04T10:43:59;98438.44;;;20.17;30.43
49973;BME280;65693;49.798;10.968;2023-06-04T10:46:37;98446.44;;;20.27;31.35
49973;BME280;65693;49.798;10.968;2023-06-04T10:49:04;98447.69;;;20.14;30.82
49973;BME280;65693;49.798;10.968;2023-06-04T10:51:31;98434.75;;;20.00;31.09
49973;BME280;65693;49.798;10.968;2023-06-04T10:53:58;98437.00;;;20.04;31.13
49973;BME280;65693;49.798;10.968;2023-06-04T10:56:27;98438.81;;;20.04;31.08
49973;BME280;65693;49.798;10.968;2023-06-04T10:58:55;98432.53;;;20.13;31.68
49973;BME280;65693;49.798;10.968;2023-06-04T11:01:25;98439.38;;;20.08;31.70
49973;BME280;65693;49.798;10.968;2023-06-04T11:03:51;98434.22;;;20.14;32.48
49973;BME280;65693;49.798;10.968;2023-06-04T11:06:18;98430.84;;;20.49;32.60
49973;BME280;65693;49.798;10.968;2023-06-04T11:08:47;98432.09;;;20.63;32.13
49973;BME280;65693;49.798;10.968;2023-06-04T11:11:14;98429.09;;;20.66;31.89
49973;BME280;65693;49.798;10.968;2023-06-04T11:13:42;98424.47;;;20.76;31.27
49973;BME280;65693;49.798;10.968;2023-06-04T11:16:16;98416.16;;;20.69;31.04
49973;BME280;65693;49.798;10.968;2023-06-04T11:18:43;98413.84;;;20.74;31.08
49973;BME280;65693;49.798;10.968;2023-06-04T11:21:09;98417.22;;;20.77;31.14
49973;BME280;65693;49.798;10.968;2023-06-04T11:23:40;98418.06;;;20.77;31.24
49973;BME280;65693;49.798;10.968;2023-06-04T11:26:06;98415.75;;;20.82;31.85
49973;BME280;65693;49.798;10.968;2023-06-04T11:28:33;98411.56;;;20.88;31.87
49973;BME280;65693;49.798;10.968;2023-06-04T11:31:01;98405.91;;;20.99;32.14
49973;BME280;65693;49.798;10.968;2023-06-04T11:33:29;98404.94;;;21.09;31.49
49973;BME280;65693;49.798;10.968;2023-06-04T11:35:56;98402.91;;;21.02;31.52
49973;BME280;65693;49.798;10.968;2023-06-04T11:38:22;98399.16;;;20.95;31.67
49973;BME280;65693;49.798;10.968;2023-06-04T11:40:57;98393.91;;;21.12;32.54
49973;BME280;65693;49.798;10.968;2023-06-04T11:43:23;98394.63;;;21.30;31.29
49973;BME280;65693;49.798;10.968;2023-06-04T11:45:50;98396.34;;;21.40;32.11
49973;BME280;65693;49.798;10.968;2023-06-04T11:48:17;98394.50;;;21.40;31.46
49973;BME280;65693;49.798;10.968;2023-06-04T11:50:44;98401.97;;;21.63;31.09
49973;BME280;65693;49.798;10.968;2023-06-04T11:53:10;98401.19;;;21.79;31.06
49973;BME280;65693;49.798;10.968;2023-06-04T11:55:38;98397.78;;;21.77;31.36
49973;BME280;65693;49.798;10.968;2023-06-04T11:58:04;98393.00;;;21.46;31.43
49973;BME280;65693;49.798;10.968;2023-06-04T12:00:31;98401.47;;;21.16;32.36
49973;BME280;65693;49.798;10.968;2023-06-04T12:02:57;98390.19;;;21.13;32.25
49973;BME280;65693;49.798;10.968;2023-06-04T12:05:30;98392.31;;;21.44;31.75
49973;BME280;65693;49.798;10.968;2023-06-04T12:08:04;98388.38;;;21.81;31.22
49973;BME280;65693;49.798;10.968;2023-06-04T12:10:36;98395.94;;;21.78;31.07
49973;BME280;65693;49.798;10.968;2023-06-04T12:13:03;98387.19;;;21.76;31.13
49973;BME280;65693;49.798;10.968;2023-06-04T12:15:29;98390.72;;;21.84;30.64
49973;BME280;65693;49.798;10.968;2023-06-04T12:17:55;98383.66;;;21.83;30.03
49973;BME280;65693;49.798;10.968;2023-06-04T12:20:34;98385.31;;;21.76;29.64
49973;BME280;65693;49.798;10.968;2023-06-04T12:23:01;98386.84;;;21.70;29.63
49973;BME280;65693;49.798;10.968;2023-06-04T12:25:28;98380.09;;;21.74;30.53
49973;BME280;65693;49.798;10.968;2023-06-04T12:27:55;98382.53;;;22.11;30.36
49973;BME280;65693;49.798;10.968;2023-06-04T12:30:22;98378.81;;;22.20;29.74
49973;BME280;65693;49.798;10.968;2023-06-04T12:32:49;98375.59;;;22.08;28.90
49973;BME280;65693;49.798;10.968;2023-06-04T12:35:16;98380.50;;;22.13;28.80
49973;BME280;65693;49.798;10.968;2023-06-04T12:37:43;98375.63;;;22.16;28.85
49973;BME280;65693;49.798;10.968;2023-06-04T12:40:11;98378.63;;;22.22;29.85
49973;BME280;65693;49.798;10.968;2023-06-04T12:42:38;98386.25;;;22.26;30.91
49973;BME280;65693;49.798;10.968;2023-06-04T12:45:06;98379.66;;;22.21;29.23
49973;BME280;65693;49.798;10.968;2023-06-04T12:47:32;98372.72;;;22.01;29.06
49973;BME280;65693;49.798;10.968;2023-06-04T12:49:59;98376.28;;;22.02;28.02
49973;BME280;65693;49.798;10.968;2023-06-04T12:52:26;98372.41;;;22.05;29.04